createdAt,value
2019-03-28T00:02:27.778Z,78.13
2019-03-28T00:05:01.762Z,78.38
2019-03-28T00:07:36.057Z,78.17
2019-03-28T00:10:10.256Z,78.17
2019-03-28T00:12:44.445Z,78.00
2019-03-28T00:15:18.393Z,78.11
2019-03-28T00:17:52.383Z,77.99
2019-03-28T00:20:26.362Z,78.11
2019-03-28T00:23:25.012Z,78.02
2019-03-28T00:25:58.993Z,78.30
2019-03-28T00:28:32.942Z,78.19
2019-03-28T00:31:06.965Z,78.27
2019-03-28T00:33:40.957Z,77.96
2019-03-28T00:36:15.086Z,78.04
2019-03-28T00:38:49.056Z,78.07
2019-03-28T00:41:24.640Z,77.89
2019-03-28T00:43:58.704Z,77.94
2019-03-28T00:46:32.702Z,78.06
2019-03-28T00:49:06.589Z,77.99
2019-03-28T00:51:42.990Z,78.17
2019-03-28T00:54:16.177Z,78.15
2019-03-28T00:56:50.170Z,78.03
2019-03-28T00:59:24.337Z,78.13
2019-03-28T01:01:59.368Z,78.12
2019-03-28T01:04:33.357Z,77.91
2019-03-28T01:07:07.341Z,78.03
2019-03-28T01:09:41.307Z,78.22
2019-03-28T01:12:15.301Z,78.43
2019-03-28T01:14:49.283Z,78.34
2019-03-28T01:17:23.373Z,78.21
2019-03-28T01:19:57.457Z,78.12
2019-03-28T01:22:31.437Z,78.17
2019-03-28T01:25:05.843Z,78.07
2019-03-28T01:27:40.806Z,78.04
2019-03-28T01:30:14.803Z,78.07
2019-03-28T01:32:48.808Z,78.08
2019-03-28T01:35:23.224Z,77.98
2019-03-28T01:37:57.302Z,78.26
2019-03-28T01:40:32.266Z,78.29
2019-03-28T01:43:06.255Z,78.23
2019-03-28T01:45:40.359Z,78.26
2019-03-28T01:48:14.340Z,78.21
2019-03-28T01:50:48.322Z,78.50
2019-03-28T01:53:22.424Z,78.35
2019-03-28T01:55:56.924Z,78.33
2019-03-28T01:58:31.061Z,78.38
2019-03-28T02:01:05.037Z,78.37
2019-03-28T02:03:40.002Z,78.44
2019-03-28T02:06:14.001Z,78.74
2019-03-28T02:08:48.099Z,78.47
2019-03-28T02:11:22.082Z,78.39
2019-03-28T02:13:57.054Z,78.56
2019-03-28T02:16:31.046Z,78.51
2019-03-28T02:19:05.023Z,78.47
2019-03-28T02:21:39.024Z,78.46
2019-03-28T02:24:13.054Z,78.46
2019-03-28T02:26:47.011Z,78.60
2019-03-28T02:29:21.067Z,78.79
2019-03-28T02:31:55.027Z,78.90
2019-03-28T02:34:29.006Z,78.98
2019-03-28T02:37:02.993Z,78.80
2019-03-28T02:39:36.991Z,78.87
2019-03-28T02:42:10.992Z,78.72
2019-03-28T02:44:46.102Z,78.81
2019-03-28T02:47:20.110Z,78.91
2019-03-28T02:49:54.143Z,78.75
2019-03-28T02:52:28.158Z,78.83
2019-03-28T02:55:02.121Z,78.75
2019-03-28T02:57:41.628Z,78.95
2019-03-28T03:00:13.265Z,79.00
2019-03-28T03:02:47.245Z,79.03
2019-03-28T03:05:21.244Z,79.33
2019-03-28T03:07:55.278Z,79.07
2019-03-28T03:10:29.281Z,79.15
2019-03-28T03:13:03.251Z,79.28
2019-03-28T03:15:37.501Z,79.38
2019-03-28T03:18:11.515Z,79.44
2019-03-28T03:20:45.603Z,79.35
2019-03-28T03:23:20.104Z,79.44
2019-03-28T03:25:55.428Z,79.36
2019-03-28T03:28:30.887Z,79.33
2019-03-28T03:31:05.283Z,79.51
2019-03-28T03:33:39.358Z,79.57
2019-03-28T03:36:13.424Z,79.29
2019-03-28T03:38:48.111Z,79.34
2019-03-28T03:41:22.242Z,79.29
2019-03-28T03:43:56.412Z,79.12
2019-03-28T03:46:30.553Z,79.29
2019-03-28T03:49:04.876Z,79.28
2019-03-28T03:51:39.153Z,79.20
2019-03-28T03:54:13.202Z,79.21
2019-03-28T03:56:47.280Z,79.13
2019-03-28T03:59:21.255Z,79.06
2019-03-28T04:01:55.299Z,78.89
2019-03-28T04:04:29.425Z,78.79
2019-03-28T04:07:03.569Z,78.75
2019-03-28T04:09:37.587Z,78.85
2019-03-28T04:12:11.764Z,78.86
2019-03-28T04:14:45.798Z,78.78
2019-03-28T04:17:22.082Z,78.84
2019-03-28T04:19:56.122Z,78.85
2019-03-28T04:22:30.142Z,78.70
2019-03-28T04:25:04.167Z,78.55
2019-03-28T04:27:38.308Z,78.61
2019-03-28T04:30:12.444Z,78.75
2019-03-28T04:32:46.851Z,78.77
2019-03-28T04:35:21.183Z,78.78
2019-03-28T04:37:55.200Z,78.78
2019-03-28T04:40:29.191Z,78.64
2019-03-28T04:43:03.236Z,78.52
2019-03-28T04:45:37.296Z,78.55
2019-03-28T04:48:11.321Z,78.63
2019-03-28T04:50:46.458Z,78.74
2019-03-28T04:53:20.589Z,78.82
2019-03-28T04:55:54.814Z,78.53
2019-03-28T04:58:28.844Z,78.68
2019-03-28T05:01:02.929Z,78.85
2019-03-28T05:03:36.956Z,78.92
2019-03-28T05:06:11.057Z,79.06
2019-03-28T05:08:45.051Z,78.88
2019-03-28T05:11:19.597Z,78.78
2019-03-28T05:13:53.641Z,78.71
2019-03-28T05:16:27.759Z,78.59
2019-03-28T05:19:01.814Z,78.81
2019-03-28T05:21:35.859Z,78.84
2019-03-28T05:24:10.015Z,78.90
2019-03-28T05:26:44.068Z,78.75
2019-03-28T05:29:18.099Z,78.94
2019-03-28T05:31:52.167Z,78.77
2019-03-28T05:34:26.231Z,78.74
2019-03-28T05:37:00.250Z,78.77
2019-03-28T05:39:34.320Z,78.68
2019-03-28T05:42:08.602Z,78.61
2019-03-28T05:44:42.733Z,78.55
2019-03-28T05:47:17.422Z,78.74
2019-03-28T05:49:51.838Z,78.68
2019-03-28T05:52:25.890Z,78.71
2019-03-28T05:55:00.003Z,78.59
2019-03-28T05:57:34.007Z,78.40
2019-03-28T06:00:09.154Z,78.34
2019-03-28T06:02:43.139Z,78.16
2019-03-28T06:05:18.438Z,78.13
2019-03-28T06:07:53.145Z,78.10
2019-03-28T06:10:27.216Z,78.05
2019-03-28T06:13:01.259Z,77.92
2019-03-28T06:15:36.355Z,78.00
2019-03-28T06:18:10.411Z,78.07
2019-03-28T06:20:44.471Z,77.79
2019-03-28T06:23:18.551Z,77.77
2019-03-28T06:25:52.594Z,77.66
2019-03-28T06:28:26.650Z,77.46
2019-03-28T06:31:00.867Z,77.18
2019-03-28T06:33:34.867Z,77.15
2019-03-28T06:36:08.908Z,77.18
2019-03-28T06:38:44.117Z,77.13
2019-03-28T06:41:18.188Z,77.02
2019-03-28T06:43:52.414Z,77.03
2019-03-28T06:46:26.858Z,77.05
2019-03-28T06:49:00.944Z,76.92
2019-03-28T06:51:34.938Z,77.02
2019-03-28T06:54:09.107Z,76.95
2019-03-28T06:56:43.516Z,76.76
2019-03-28T06:59:17.739Z,76.73
2019-03-28T07:01:52.095Z,76.58
2019-03-28T07:04:26.627Z,76.75
2019-03-28T07:07:01.776Z,76.47
2019-03-28T07:09:35.855Z,76.66
2019-03-28T07:12:09.907Z,76.54
2019-03-28T07:14:44.017Z,76.46
2019-03-28T07:17:18.033Z,76.01
2019-03-28T07:19:52.039Z,75.93
2019-03-28T07:22:27.150Z,75.75
2019-03-28T07:25:01.151Z,75.81
2019-03-28T07:27:35.222Z,75.48
2019-03-28T07:30:10.564Z,75.48
2019-03-28T07:32:44.811Z,75.67
2019-03-28T07:35:18.913Z,75.37
2019-03-28T07:37:53.111Z,75.64
2019-03-28T07:40:27.887Z,75.15
2019-03-28T07:43:02.966Z,75.54
2019-03-28T07:45:37.176Z,74.62
2019-03-28T07:48:11.575Z,75.10
2019-03-28T07:50:46.039Z,75.06
2019-03-28T07:53:20.948Z,74.97
2019-03-28T07:55:59.173Z,74.28
2019-03-28T07:58:36.028Z,74.09
2019-03-28T08:01:10.145Z,74.53
2019-03-28T08:03:44.356Z,72.25
2019-03-28T08:06:18.455Z,71.50
2019-03-28T08:08:52.687Z,71.79
2019-03-28T08:11:27.058Z,71.45
2019-03-28T08:14:01.439Z,71.46
2019-03-28T08:16:35.611Z,70.43
2019-03-28T08:19:09.699Z,69.22
2019-03-28T08:21:44.079Z,68.70
2019-03-28T08:24:18.305Z,67.80
2019-03-28T08:26:52.503Z,68.09
2019-03-28T08:29:26.821Z,65.28
2019-03-28T08:32:01.243Z,63.87
2019-03-28T08:34:35.601Z,64.08
2019-03-28T08:37:09.815Z,65.38
2019-03-28T08:39:44.767Z,65.24
2019-03-28T08:42:19.587Z,65.60
2019-03-28T08:44:53.883Z,64.51
2019-03-28T08:47:27.911Z,64.08
2019-03-28T08:50:02.236Z,64.26
2019-03-28T08:52:36.331Z,64.45
2019-03-28T08:55:10.945Z,64.83
2019-03-28T08:57:45.019Z,64.37
2019-03-28T09:00:32.358Z,64.48
2019-03-28T09:02:55.365Z,63.48
2019-03-28T09:05:30.857Z,61.50
2019-03-28T09:08:05.028Z,60.92
2019-03-28T09:10:39.055Z,60.78
2019-03-28T09:13:13.087Z,60.06
2019-03-28T09:15:47.249Z,60.83
2019-03-28T09:18:21.347Z,61.09
2019-03-28T09:20:55.544Z,59.81
2019-03-28T09:23:29.682Z,60.08
2019-03-28T09:26:04.483Z,56.13
2019-03-28T09:28:40.589Z,57.62
2019-03-28T09:31:20.026Z,56.96
2019-03-28T09:33:50.215Z,56.07
2019-03-28T09:36:24.482Z,53.40
2019-03-28T09:38:58.738Z,52.78
2019-03-28T09:41:32.828Z,53.38
2019-03-28T09:44:06.903Z,53.23
2019-03-28T09:46:40.882Z,53.31
2019-03-28T09:49:15.136Z,53.17
2019-03-28T09:51:49.318Z,54.86
2019-03-28T09:54:24.588Z,53.32
2019-03-28T09:56:58.709Z,53.02
2019-03-28T09:59:32.826Z,52.09
2019-03-28T10:02:06.930Z,53.75
2019-03-28T10:04:42.020Z,52.42
2019-03-28T10:07:16.619Z,52.89
2019-03-28T10:09:50.778Z,52.40
2019-03-28T10:12:24.789Z,51.41
2019-03-28T10:14:58.929Z,50.64
2019-03-28T10:17:32.949Z,51.20
2019-03-28T10:20:07.660Z,50.42
2019-03-28T10:22:42.088Z,50.34
2019-03-28T10:25:16.166Z,50.50
2019-03-28T10:27:50.719Z,50.00
2019-03-28T10:30:42.845Z,50.99
2019-03-28T10:33:16.938Z,51.28
2019-03-28T10:35:51.448Z,51.23
2019-03-28T10:38:25.901Z,52.34
2019-03-28T10:40:59.865Z,49.79
2019-03-28T10:43:34.268Z,47.83
2019-03-28T10:46:08.283Z,45.82
2019-03-28T10:48:42.402Z,46.65
2019-03-28T10:51:16.393Z,47.10
2019-03-28T10:53:50.499Z,48.24
2019-03-28T10:56:24.734Z,48.74
2019-03-28T10:58:58.879Z,52.10
2019-03-28T11:01:48.160Z,51.31
2019-03-28T11:04:08.748Z,51.45
2019-03-28T11:06:42.741Z,48.24
2019-03-28T11:09:16.907Z,50.23
2019-03-28T11:11:50.897Z,48.74
2019-03-28T11:14:24.884Z,48.87
2019-03-28T11:16:58.920Z,49.36
2019-03-28T11:19:32.933Z,51.76
2019-03-28T11:22:07.331Z,52.36
2019-03-28T11:24:41.774Z,52.31
2019-03-28T11:27:15.913Z,51.80
2019-03-28T11:29:50.100Z,50.05
2019-03-28T11:32:24.212Z,51.13
2019-03-28T11:34:58.304Z,50.98
2019-03-28T11:37:32.748Z,52.64
2019-03-28T11:40:09.552Z,51.44
2019-03-28T11:42:44.342Z,51.51
2019-03-28T11:45:18.758Z,50.27
2019-03-28T11:47:52.957Z,50.42
2019-03-28T11:50:26.993Z,50.75
2019-03-28T11:53:01.130Z,50.45
2019-03-28T11:55:35.254Z,50.60
2019-03-28T11:58:09.768Z,49.84
2019-03-28T12:00:43.828Z,49.04
2019-03-28T12:03:17.959Z,50.55
2019-03-28T12:05:53.226Z,49.19
2019-03-28T12:08:27.812Z,49.71
2019-03-28T12:11:01.838Z,48.63
2019-03-28T12:13:44.565Z,50.13
2019-03-28T12:16:11.551Z,48.69
2019-03-28T12:18:45.892Z,48.48
2019-03-28T12:21:20.093Z,47.41
2019-03-28T12:23:55.202Z,48.32
2019-03-28T12:26:30.295Z,47.39
2019-03-28T12:29:05.883Z,47.58
2019-03-28T12:31:40.274Z,48.16
2019-03-28T12:34:15.350Z,47.93
2019-03-28T12:36:49.599Z,47.42
2019-03-28T12:39:23.761Z,47.32
2019-03-28T12:41:57.898Z,48.09
2019-03-28T12:44:32.086Z,47.63
2019-03-28T12:47:06.133Z,48.67
2019-03-28T12:49:41.341Z,47.96
2019-03-28T12:52:19.210Z,48.41
2019-03-28T12:54:56.591Z,46.73
2019-03-28T12:57:31.006Z,45.84
2019-03-28T13:00:06.836Z,46.93
2019-03-28T13:02:44.793Z,46.16
2019-03-28T13:05:20.255Z,45.68
2019-03-28T13:07:54.275Z,46.01
2019-03-28T13:10:28.486Z,47.57
2019-03-28T13:13:02.492Z,48.15
2019-03-28T13:15:37.012Z,48.59
2019-03-28T13:18:20.092Z,49.82
2019-03-28T13:20:54.493Z,49.35
2019-03-28T13:23:28.748Z,49.61
2019-03-28T13:26:04.813Z,50.08
2019-03-28T13:28:38.924Z,49.70
2019-03-28T13:31:13.076Z,49.49
2019-03-28T13:33:48.197Z,49.01
2019-03-28T13:36:22.412Z,48.59
2019-03-28T13:38:56.584Z,48.49
2019-03-28T13:41:30.787Z,48.54
2019-03-28T13:44:04.831Z,48.16
2019-03-28T13:46:39.474Z,48.01
2019-03-28T13:49:13.644Z,46.33
2019-03-28T13:51:47.985Z,47.39
2019-03-28T13:54:23.422Z,47.24
2019-03-28T13:56:58.544Z,47.54
2019-03-28T13:59:35.360Z,47.76
2019-03-28T14:02:08.934Z,47.89
2019-03-28T14:04:43.147Z,46.65
2019-03-28T14:07:17.665Z,46.68
2019-03-28T14:09:51.930Z,48.09
2019-03-28T14:12:25.951Z,49.55
2019-03-28T14:15:00.254Z,47.34
2019-03-28T14:17:35.126Z,48.50
2019-03-28T14:20:09.936Z,47.58
2019-03-28T14:22:44.079Z,47.35
2019-03-28T14:25:18.960Z,47.49
2019-03-28T14:27:52.988Z,47.16
2019-03-28T14:30:27.403Z,47.39
2019-03-28T14:33:11.185Z,47.25
2019-03-28T14:35:37.120Z,47.79
2019-03-28T14:38:11.951Z,49.53
2019-03-28T14:40:45.917Z,47.69
2019-03-28T14:43:19.949Z,48.03
2019-03-28T14:45:53.986Z,48.42
2019-03-28T14:48:28.012Z,48.97
2019-03-28T14:51:02.260Z,49.04
2019-03-28T14:53:36.298Z,49.36
2019-03-28T14:56:10.523Z,49.53
2019-03-28T14:58:44.812Z,49.87
2019-03-28T15:01:18.810Z,49.76
2019-03-28T15:03:52.801Z,49.20
2019-03-28T15:06:26.862Z,49.62
2019-03-28T15:09:00.886Z,49.76
2019-03-28T15:11:36.836Z,50.05
2019-03-28T15:14:10.829Z,50.08
2019-03-28T15:16:45.161Z,49.56
2019-03-28T15:19:19.214Z,49.19
2019-03-28T15:21:53.311Z,49.33
2019-03-28T15:24:27.440Z,49.85
2019-03-28T15:27:01.584Z,50.28
2019-03-28T15:29:35.591Z,50.25
2019-03-28T15:32:09.652Z,50.08
2019-03-28T15:34:43.735Z,50.25
2019-03-28T15:37:17.767Z,50.19
2019-03-28T15:39:51.844Z,50.11
2019-03-28T15:42:27.990Z,49.46
2019-03-28T15:45:01.653Z,49.80
2019-03-28T15:47:36.230Z,50.13
2019-03-28T15:50:10.443Z,49.66
2019-03-28T15:52:45.016Z,49.59
2019-03-28T15:55:19.069Z,49.74
2019-03-28T15:57:53.562Z,49.37
2019-03-28T16:00:29.290Z,49.65
2019-03-28T16:03:03.554Z,49.85
2019-03-28T16:05:37.769Z,49.56
2019-03-28T16:08:11.830Z,48.98
2019-03-28T16:11:09.108Z,49.08
2019-03-28T16:13:43.111Z,49.05
2019-03-28T16:16:17.384Z,49.13
2019-03-28T16:18:51.886Z,49.32
2019-03-28T16:21:26.838Z,49.07
2019-03-28T16:24:01.223Z,49.20
2019-03-28T16:26:35.258Z,48.80
2019-03-28T16:29:09.429Z,49.44
2019-03-28T16:31:43.620Z,49.66
2019-03-28T16:34:17.591Z,49.83
2019-03-28T16:36:52.727Z,49.48
2019-03-28T16:39:28.199Z,49.43
2019-03-28T16:42:02.208Z,49.60
2019-03-28T16:44:36.201Z,49.30
2019-03-28T16:47:10.813Z,49.50
2019-03-28T16:49:45.048Z,50.46
2019-03-28T16:52:19.259Z,50.49
2019-03-28T16:54:53.675Z,50.61
2019-03-28T16:57:27.703Z,50.62
2019-03-28T17:00:01.823Z,50.87
2019-03-28T17:02:35.969Z,50.94
2019-03-28T17:05:10.010Z,50.82
2019-03-28T17:07:44.080Z,50.32
2019-03-28T17:10:44.701Z,50.44
2019-03-28T17:13:18.868Z,50.39
2019-03-28T17:15:52.986Z,50.83
2019-03-28T17:18:27.061Z,51.27
2019-03-28T17:21:01.137Z,51.82
2019-03-28T17:23:35.257Z,52.25
2019-03-28T17:26:09.437Z,52.58
2019-03-28T17:28:43.551Z,52.94
2019-03-28T17:31:18.885Z,53.82
2019-03-28T17:33:53.388Z,53.76
2019-03-28T17:36:27.469Z,53.96
2019-03-28T17:39:01.501Z,54.40
2019-03-28T17:41:35.793Z,54.49
2019-03-28T17:44:09.996Z,54.25
2019-03-28T17:46:44.803Z,54.43
2019-03-28T17:49:19.368Z,51.62
2019-03-28T17:51:53.393Z,51.10
2019-03-28T17:54:27.519Z,51.18
2019-03-28T17:57:01.827Z,51.69
2019-03-28T17:59:35.961Z,51.90
2019-03-28T18:02:10.570Z,51.88
2019-03-28T18:04:48.113Z,52.85
2019-03-28T18:07:20.599Z,53.28
2019-03-28T18:09:55.029Z,53.62
2019-03-28T18:12:29.129Z,54.29
2019-03-28T18:15:03.713Z,54.12
2019-03-28T18:17:37.858Z,54.56
2019-03-28T18:20:12.180Z,54.26
2019-03-28T18:22:46.224Z,54.24
2019-03-28T18:25:20.252Z,54.40
2019-03-28T18:27:54.416Z,54.17
2019-03-28T18:30:28.736Z,54.08
2019-03-28T18:33:04.101Z,53.90
2019-03-28T18:35:39.196Z,53.44
2019-03-28T18:38:13.310Z,52.99
2019-03-28T18:40:47.511Z,49.37
2019-03-28T18:43:21.643Z,49.99
2019-03-28T18:45:57.815Z,50.76
2019-03-28T18:48:36.752Z,51.31
2019-03-28T18:51:10.902Z,52.20
2019-03-28T18:53:44.953Z,53.45
2019-03-28T18:56:19.032Z,53.94
2019-03-28T18:58:53.060Z,54.45
2019-03-28T19:01:27.124Z,55.07
2019-03-28T19:04:01.221Z,55.24
2019-03-28T19:06:36.546Z,55.12
2019-03-28T19:09:10.647Z,55.42
2019-03-28T19:11:44.803Z,55.12
2019-03-28T19:14:23.501Z,54.25
2019-03-28T19:16:57.569Z,54.67
2019-03-28T19:19:39.205Z,54.73
2019-03-28T19:22:07.431Z,55.07
2019-03-28T19:24:42.125Z,55.39
2019-03-28T19:27:16.992Z,55.53
2019-03-28T19:29:50.987Z,55.60
2019-03-28T19:32:25.159Z,55.98
2019-03-28T19:35:02.749Z,56.92
2019-03-28T19:37:34.881Z,57.27
2019-03-28T19:40:09.828Z,57.81
2019-03-28T19:42:44.309Z,57.70
2019-03-28T19:45:35.826Z,58.32
2019-03-28T19:48:09.790Z,58.56
2019-03-28T19:50:43.843Z,58.36
2019-03-28T19:53:18.208Z,58.46
2019-03-28T19:55:52.522Z,58.30
2019-03-28T19:58:26.530Z,58.85
2019-03-28T20:01:00.617Z,58.58
2019-03-28T20:03:34.964Z,58.48
2019-03-28T20:06:21.519Z,59.08
2019-03-28T20:08:45.120Z,59.24
2019-03-28T20:11:20.105Z,59.23
2019-03-28T20:13:54.296Z,59.79
2019-03-28T20:16:28.313Z,60.24
2019-03-28T20:19:02.553Z,60.19
2019-03-28T20:21:36.596Z,59.73
2019-03-28T20:24:10.630Z,63.08
2019-03-28T20:26:44.635Z,60.00
2019-03-28T20:29:18.675Z,58.94
2019-03-28T20:31:53.318Z,64.04
2019-03-28T20:34:35.134Z,60.54
2019-03-28T20:37:09.168Z,60.17
2019-03-28T20:39:43.292Z,60.17
2019-03-28T20:42:22.344Z,60.21
2019-03-28T20:44:57.107Z,60.09
2019-03-28T20:47:32.054Z,60.02
2019-03-28T20:50:11.305Z,61.05
2019-03-28T20:52:46.682Z,61.33
2019-03-28T20:55:20.865Z,60.90
2019-03-28T20:57:55.135Z,61.12
2019-03-28T21:00:48.673Z,61.61
2019-03-28T21:03:22.888Z,62.02
2019-03-28T21:05:57.186Z,61.87
2019-03-28T21:08:32.168Z,62.24
2019-03-28T21:11:06.439Z,62.96
2019-03-28T21:13:40.554Z,63.49
2019-03-28T21:16:14.580Z,63.63
2019-03-28T21:18:49.323Z,64.04
2019-03-28T21:21:27.009Z,63.84
2019-03-28T21:24:05.690Z,63.26
2019-03-28T21:26:41.068Z,63.02
2019-03-28T21:29:16.812Z,63.13
2019-03-28T21:31:52.554Z,63.08
2019-03-28T21:34:27.104Z,63.65
2019-03-28T21:37:01.278Z,63.86
2019-03-28T21:39:39.872Z,63.59
2019-03-28T21:42:29.879Z,63.01
2019-03-28T21:45:04.397Z,62.86
2019-03-28T21:47:39.994Z,63.20
2019-03-28T21:50:14.558Z,63.27
2019-03-28T21:52:53.479Z,63.41
2019-03-28T21:55:28.961Z,63.71
2019-03-28T21:58:03.079Z,63.56
2019-03-28T22:00:37.563Z,63.86
2019-03-28T22:03:16.872Z,64.29
2019-03-28T22:05:51.636Z,64.48
2019-03-28T22:08:26.383Z,64.76
2019-03-28T22:11:00.428Z,64.80
2019-03-28T22:13:35.402Z,64.84
2019-03-28T22:16:09.592Z,65.11
2019-03-28T22:18:43.690Z,65.53
2019-03-28T22:21:17.811Z,65.74
2019-03-28T22:23:51.933Z,65.87
2019-03-28T22:26:26.105Z,66.57
2019-03-28T22:29:01.264Z,66.88
2019-03-28T22:31:35.416Z,66.82
2019-03-28T22:34:19.049Z,66.99
2019-03-28T22:36:57.474Z,67.08
2019-03-28T22:39:30.922Z,66.83
2019-03-28T22:42:04.999Z,67.26
2019-03-28T22:44:39.038Z,68.10
2019-03-28T22:47:13.548Z,68.36
2019-03-28T22:49:47.602Z,68.61
2019-03-28T22:52:21.638Z,69.08
2019-03-28T22:54:55.793Z,69.03
2019-03-28T22:57:29.933Z,69.44
2019-03-28T23:00:04.342Z,69.70
2019-03-28T23:02:39.122Z,69.87
2019-03-28T23:05:14.234Z,69.94
2019-03-28T23:07:48.254Z,69.58
2019-03-28T23:10:22.353Z,69.72
2019-03-28T23:12:56.352Z,69.93
2019-03-28T23:15:30.580Z,69.93
2019-03-28T23:18:05.549Z,70.18
2019-03-28T23:20:39.596Z,70.14
2019-03-28T23:23:13.625Z,69.84
2019-03-28T23:25:47.860Z,70.04
2019-03-28T23:28:21.875Z,70.37
2019-03-28T23:30:55.918Z,70.51
2019-03-28T23:33:30.316Z,70.89
2019-03-28T23:36:05.054Z,70.83
2019-03-28T23:38:39.102Z,70.87
2019-03-28T23:41:13.158Z,70.87
2019-03-28T23:43:47.187Z,71.13
2019-03-28T23:46:21.222Z,71.05
2019-03-28T23:48:55.235Z,71.01
2019-03-28T23:51:29.274Z,71.21
2019-03-28T23:54:03.475Z,71.13
2019-03-28T23:56:37.527Z,71.52
2019-03-28T23:59:13.146Z,71.71
